Terminal Aerodrome Forecast
Issued by NWS

Home | Current Version | Previous Version | Text Only | Print | Product List | Glossary On
Versions: 1 2 3 4 5 6 7 8 9 10 11 12 13 14 15 16 17 18 19 20
000
FTUS46 KHNX 220801 AAA
TAFMER
TAF AMD
KMER 220801Z 2208/2306 VRB03KT 5SM BR OVC006
     FM221100 VRB03KT 2SM BR OVC005
      TEMPO 2212/2216 1/2SM FG OVC005
     FM221800 VRB03KT 3SM BR OVC005
     FM222100 32005KT 4SM HZ SCT005 BKN015=

USA.gov is the U.S. government's official web portal to all federal, state and local government web resources and services.